sensor_id;sensor_type;location;lat;lon;timestamp;P1;durP1;ratioP1;P2;durP2;ratioP2
8572;SDS011;4324;42.012;24.872;2022-10-16T00:02:14;6.20;;;5.70;;
8572;SDS011;4324;42.012;24.872;2022-10-16T00:04:41;6.37;;;5.77;;
8572;SDS011;4324;42.012;24.872;2022-10-16T00:07:08;9.13;;;6.03;;
8572;SDS011;4324;42.012;24.872;2022-10-16T00:09:35;6.83;;;6.13;;
8572;SDS011;4324;42.012;24.872;2022-10-16T00:12:02;6.27;;;5.47;;
8572;SDS011;4324;42.012;24.872;2022-10-16T00:14:31;6.33;;;5.73;;
8572;SDS011;4324;42.012;24.872;2022-10-16T00:16:58;6.13;;;5.63;;
8572;SDS011;4324;42.012;24.872;2022-10-16T00:19:25;6.57;;;5.83;;
8572;SDS011;4324;42.012;24.872;2022-10-16T00:21:51;6.60;;;6.00;;
8572;SDS011;4324;42.012;24.872;2022-10-16T00:24:18;6.30;;;5.80;;
8572;SDS011;4324;42.012;24.872;2022-10-16T00:26:45;6.73;;;5.63;;
8572;SDS011;4324;42.012;24.872;2022-10-16T00:29:16;6.97;;;6.37;;
8572;SDS011;4324;42.012;24.872;2022-10-16T00:31:44;7.03;;;6.00;;
8572;SDS011;4324;42.012;24.872;2022-10-16T00:34:13;6.33;;;5.80;;
8572;SDS011;4324;42.012;24.872;2022-10-16T00:36:40;6.63;;;6.00;;
8572;SDS011;4324;42.012;24.872;2022-10-16T00:39:07;6.30;;;5.70;;
8572;SDS011;4324;42.012;24.872;2022-10-16T00:41:34;6.80;;;6.20;;
8572;SDS011;4324;42.012;24.872;2022-10-16T00:44:01;9.00;;;6.90;;
8572;SDS011;4324;42.012;24.872;2022-10-16T00:46:30;7.37;;;6.57;;
8572;SDS011;4324;42.012;24.872;2022-10-16T00:49:06;6.87;;;6.20;;
8572;SDS011;4324;42.012;24.872;2022-10-16T00:51:37;6.40;;;5.77;;
8572;SDS011;4324;42.012;24.872;2022-10-16T00:54:06;6.70;;;6.07;;
8572;SDS011;4324;42.012;24.872;2022-10-16T00:56:36;7.63;;;6.83;;
8572;SDS011;4324;42.012;24.872;2022-10-16T00:59:03;7.10;;;6.40;;
8572;SDS011;4324;42.012;24.872;2022-10-16T01:01:36;7.77;;;6.20;;
8572;SDS011;4324;42.012;24.872;2022-10-16T01:04:03;6.50;;;5.90;;
8572;SDS011;4324;42.012;24.872;2022-10-16T01:06:32;6.60;;;6.00;;
8572;SDS011;4324;42.012;24.872;2022-10-16T01:09:10;7.30;;;6.60;;
8572;SDS011;4324;42.012;24.872;2022-10-16T01:11:43;6.70;;;5.83;;
8572;SDS011;4324;42.012;24.872;2022-10-16T01:14:15;6.70;;;6.20;;
8572;SDS011;4324;42.012;24.872;2022-10-16T01:16:49;6.83;;;6.23;;
8572;SDS011;4324;42.012;24.872;2022-10-16T01:19:30;7.60;;;6.80;;
8572;SDS011;4324;42.012;24.872;2022-10-16T01:22:08;6.47;;;5.87;;
8572;SDS011;4324;42.012;24.872;2022-10-16T01:24:38;6.63;;;6.03;;
8572;SDS011;4324;42.012;24.872;2022-10-16T01:27:12;7.13;;;6.43;;
8572;SDS011;4324;42.012;24.872;2022-10-16T01:29:42;7.30;;;6.67;;
8572;SDS011;4324;42.012;24.872;2022-10-16T01:32:19;6.83;;;6.23;;
8572;SDS011;4324;42.012;24.872;2022-10-16T01:34:51;6.40;;;5.80;;
8572;SDS011;4324;42.012;24.872;2022-10-16T01:37:25;8.50;;;5.80;;
8572;SDS011;4324;42.012;24.872;2022-10-16T01:39:58;6.70;;;6.10;;
8572;SDS011;4324;42.012;24.872;2022-10-16T01:42:31;6.67;;;6.00;;
8572;SDS011;4324;42.012;24.872;2022-10-16T01:45:02;7.63;;;6.17;;
8572;SDS011;4324;42.012;24.872;2022-10-16T01:47:33;7.33;;;6.63;;
8572;SDS011;4324;42.012;24.872;2022-10-16T01:50:03;8.43;;;6.30;;
8572;SDS011;4324;42.012;24.872;2022-10-16T01:52:34;7.93;;;6.10;;
8572;SDS011;4324;42.012;24.872;2022-10-16T01:55:03;6.40;;;5.83;;
8572;SDS011;4324;42.012;24.872;2022-10-16T01:57:35;7.13;;;6.43;;
8572;SDS011;4324;42.012;24.872;2022-10-16T02:00:05;6.77;;;5.93;;
8572;SDS011;4324;42.012;24.872;2022-10-16T02:02:35;6.70;;;5.73;;
8572;SDS011;4324;42.012;24.872;2022-10-16T02:05:04;6.47;;;5.77;;
8572;SDS011;4324;42.012;24.872;2022-10-16T02:07:35;8.30;;;6.10;;
8572;SDS011;4324;42.012;24.872;2022-10-16T02:10:03;6.70;;;6.00;;
8572;SDS011;4324;42.012;24.872;2022-10-16T02:12:31;7.20;;;6.50;;
8572;SDS011;4324;42.012;24.872;2022-10-16T02:15:01;6.53;;;5.93;;
8572;SDS011;4324;42.012;24.872;2022-10-16T02:17:28;6.83;;;6.23;;
8572;SDS011;4324;42.012;24.872;2022-10-16T02:19:56;7.03;;;6.40;;
8572;SDS011;4324;42.012;24.872;2022-10-16T02:22:26;6.90;;;6.30;;
8572;SDS011;4324;42.012;24.872;2022-10-16T02:24:56;7.40;;;6.20;;
8572;SDS011;4324;42.012;24.872;2022-10-16T02:27:30;6.97;;;6.20;;
8572;SDS011;4324;42.012;24.872;2022-10-16T02:30:04;8.20;;;6.73;;
8572;SDS011;4324;42.012;24.872;2022-10-16T02:32:36;7.40;;;6.50;;
8572;SDS011;4324;42.012;24.872;2022-10-16T02:35:04;6.97;;;6.10;;
8572;SDS011;4324;42.012;24.872;2022-10-16T02:37:33;7.90;;;7.10;;
8572;SDS011;4324;42.012;24.872;2022-10-16T02:40:02;8.00;;;7.27;;
8572;SDS011;4324;42.012;24.872;2022-10-16T02:42:33;7.67;;;6.87;;
8572;SDS011;4324;42.012;24.872;2022-10-16T02:45:02;8.07;;;7.00;;
8572;SDS011;4324;42.012;24.872;2022-10-16T02:47:30;8.53;;;6.80;;
8572;SDS011;4324;42.012;24.872;2022-10-16T02:49:57;7.63;;;6.10;;
8572;SDS011;4324;42.012;24.872;2022-10-16T02:52:24;8.93;;;6.60;;
8572;SDS011;4324;42.012;24.872;2022-10-16T02:54:51;7.00;;;6.30;;
8572;SDS011;4324;42.012;24.872;2022-10-16T02:57:18;6.97;;;6.37;;
8572;SDS011;4324;42.012;24.872;2022-10-16T02:59:45;7.07;;;6.07;;
8572;SDS011;4324;42.012;24.872;2022-10-16T03:02:13;7.57;;;6.33;;
8572;SDS011;4324;42.012;24.872;2022-10-16T03:04:40;6.80;;;6.20;;
8572;SDS011;4324;42.012;24.872;2022-10-16T03:07:07;6.90;;;6.20;;
8572;SDS011;4324;42.012;24.872;2022-10-16T03:09:34;7.03;;;6.30;;
8572;SDS011;4324;42.012;24.872;2022-10-16T03:12:01;8.13;;;6.87;;
8572;SDS011;4324;42.012;24.872;2022-10-16T03:14:28;6.90;;;6.30;;
8572;SDS011;4324;42.012;24.872;2022-10-16T03:16:54;6.80;;;6.10;;
8572;SDS011;4324;42.012;24.872;2022-10-16T03:19:23;6.97;;;6.37;;
8572;SDS011;4324;42.012;24.872;2022-10-16T03:21:49;6.83;;;6.23;;
8572;SDS011;4324;42.012;24.872;2022-10-16T03:24:16;6.30;;;5.70;;
8572;SDS011;4324;42.012;24.872;2022-10-16T03:26:43;7.27;;;6.67;;
8572;SDS011;4324;42.012;24.872;2022-10-16T03:29:10;9.83;;;8.80;;
8572;SDS011;4324;42.012;24.872;2022-10-16T03:31:37;7.27;;;6.57;;
8572;SDS011;4324;42.012;24.872;2022-10-16T03:34:04;9.20;;;6.40;;
8572;SDS011;4324;42.012;24.872;2022-10-16T03:36:32;6.97;;;6.37;;
8572;SDS011;4324;42.012;24.872;2022-10-16T03:38:59;6.60;;;6.00;;
8572;SDS011;4324;42.012;24.872;2022-10-16T03:41:26;6.97;;;6.27;;
8572;SDS011;4324;42.012;24.872;2022-10-16T03:43:53;7.10;;;6.40;;
8572;SDS011;4324;42.012;24.872;2022-10-16T03:46:20;7.63;;;6.93;;
8572;SDS011;4324;42.012;24.872;2022-10-16T03:48:47;7.43;;;6.73;;
8572;SDS011;4324;42.012;24.872;2022-10-16T03:51:14;7.17;;;6.57;;
8572;SDS011;4324;42.012;24.872;2022-10-16T03:53:42;9.77;;;7.07;;
8572;SDS011;4324;42.012;24.872;2022-10-16T03:56:09;9.50;;;7.17;;
8572;SDS011;4324;42.012;24.872;2022-10-16T03:58:36;7.70;;;6.97;;
8572;SDS011;4324;42.012;24.872;2022-10-16T04:01:03;12.30;;;8.63;;
8572;SDS011;4324;42.012;24.872;2022-10-16T04:03:29;9.53;;;8.00;;
8572;SDS011;4324;42.012;24.872;2022-10-16T04:05:57;9.93;;;7.70;;
8572;SDS011;4324;42.012;24.872;2022-10-16T04:08:23;8.40;;;7.43;;
8572;SDS011;4324;42.012;24.872;2022-10-16T04:10:52;8.60;;;7.33;;
8572;SDS011;4324;42.012;24.872;2022-10-16T04:13:19;8.50;;;6.80;;
8572;SDS011;4324;42.012;24.872;2022-10-16T04:15:46;8.83;;;6.60;;
8572;SDS011;4324;42.012;24.872;2022-10-16T04:18:13;8.13;;;7.27;;
8572;SDS011;4324;42.012;24.872;2022-10-16T04:20:40;13.63;;;7.90;;
8572;SDS011;4324;42.012;24.872;2022-10-16T04:23:07;21.10;;;9.40;;
8572;SDS011;4324;42.012;24.872;2022-10-16T04:25:34;8.90;;;7.03;;
8572;SDS011;4324;42.012;24.872;2022-10-16T04:28:02;7.03;;;6.40;;
8572;SDS011;4324;42.012;24.872;2022-10-16T04:30:29;8.73;;;7.73;;
8572;SDS011;4324;42.012;24.872;2022-10-16T04:32:56;11.50;;;9.67;;
8572;SDS011;4324;42.012;24.872;2022-10-16T04:35:23;9.20;;;8.30;;
8572;SDS011;4324;42.012;24.872;2022-10-16T04:37:50;9.57;;;8.67;;
8572;SDS011;4324;42.012;24.872;2022-10-16T04:40:17;12.57;;;10.47;;
8572;SDS011;4324;42.012;24.872;2022-10-16T04:42:44;14.13;;;11.40;;
8572;SDS011;4324;42.012;24.872;2022-10-16T04:45:12;12.57;;;11.03;;
8572;SDS011;4324;42.012;24.872;2022-10-16T04:47:39;12.67;;;9.80;;
8572;SDS011;4324;42.012;24.872;2022-10-16T04:50:08;13.17;;;11.00;;
8572;SDS011;4324;42.012;24.872;2022-10-16T04:52:36;13.57;;;10.87;;
8572;SDS011;4324;42.012;24.872;2022-10-16T04:55:03;15.00;;;11.80;;
8572;SDS011;4324;42.012;24.872;2022-10-16T04:57:30;14.57;;;11.10;;
8572;SDS011;4324;42.012;24.872;2022-10-16T04:59:58;15.87;;;11.30;;
8572;SDS011;4324;42.012;24.872;2022-10-16T05:02:27;11.90;;;10.03;;
8572;SDS011;4324;42.012;24.872;2022-10-16T05:04:54;11.57;;;10.37;;
8572;SDS011;4324;42.012;24.872;2022-10-16T05:07:21;12.00;;;10.57;;
8572;SDS011;4324;42.012;24.872;2022-10-16T05:09:48;14.50;;;11.40;;
8572;SDS011;4324;42.012;24.872;2022-10-16T05:12:15;11.90;;;10.17;;
8572;SDS011;4324;42.012;24.872;2022-10-16T05:14:41;13.27;;;9.23;;
8572;SDS011;4324;42.012;24.872;2022-10-16T05:17:08;11.93;;;10.70;;
8572;SDS011;4324;42.012;24.872;2022-10-16T05:19:36;12.10;;;9.67;;
8572;SDS011;4324;42.012;24.872;2022-10-16T05:22:04;15.20;;;10.90;;
8572;SDS011;4324;42.012;24.872;2022-10-16T05:24:30;11.83;;;9.37;;
8572;SDS011;4324;42.012;24.872;2022-10-16T05:26:57;12.30;;;10.90;;
8572;SDS011;4324;42.012;24.872;2022-10-16T05:29:24;17.93;;;11.93;;
8572;SDS011;4324;42.012;24.872;2022-10-16T05:31:51;12.77;;;9.50;;
8572;SDS011;4324;42.012;24.872;2022-10-16T05:34:19;10.10;;;9.00;;
8572;SDS011;4324;42.012;24.872;2022-10-16T05:36:48;13.53;;;10.50;;
8572;SDS011;4324;42.012;24.872;2022-10-16T05:39:15;18.83;;;16.80;;
8572;SDS011;4324;42.012;24.872;2022-10-16T05:41:42;15.27;;;12.13;;
8572;SDS011;4324;42.012;24.872;2022-10-16T05:44:09;19.13;;;12.57;;
8572;SDS011;4324;42.012;24.872;2022-10-16T05:46:36;15.13;;;10.77;;
8572;SDS011;4324;42.012;24.872;2022-10-16T05:49:03;12.27;;;11.00;;
8572;SDS011;4324;42.012;24.872;2022-10-16T05:51:30;13.23;;;10.57;;
8572;SDS011;4324;42.012;24.872;2022-10-16T05:53:58;12.43;;;10.87;;
8572;SDS011;4324;42.012;24.872;2022-10-16T05:56:25;12.27;;;10.53;;
8572;SDS011;4324;42.012;24.872;2022-10-16T05:58:52;16.20;;;13.03;;
8572;SDS011;4324;42.012;24.872;2022-10-16T06:01:19;13.33;;;11.60;;
8572;SDS011;4324;42.012;24.872;2022-10-16T06:03:49;17.10;;;12.97;;
8572;SDS011;4324;42.012;24.872;2022-10-16T06:06:16;12.93;;;10.70;;
8572;SDS011;4324;42.012;24.872;2022-10-16T06:08:45;11.80;;;9.93;;
8572;SDS011;4324;42.012;24.872;2022-10-16T06:11:16;11.13;;;9.20;;
8572;SDS011;4324;42.012;24.872;2022-10-16T06:13:44;12.00;;;10.73;;
8572;SDS011;4324;42.012;24.872;2022-10-16T06:16:12;15.07;;;11.97;;
8572;SDS011;4324;42.012;24.872;2022-10-16T06:18:39;11.33;;;10.23;;
8572;SDS011;4324;42.012;24.872;2022-10-16T06:21:07;11.80;;;10.17;;
8572;SDS011;4324;42.012;24.872;2022-10-16T06:23:35;13.33;;;10.00;;
8572;SDS011;4324;42.012;24.872;2022-10-16T06:26:06;13.73;;;10.57;;
8572;SDS011;4324;42.012;24.872;2022-10-16T06:28:36;12.80;;;10.43;;
8572;SDS011;4324;42.012;24.872;2022-10-16T06:31:03;13.73;;;10.57;;
8572;SDS011;4324;42.012;24.872;2022-10-16T06:33:30;15.73;;;10.80;;
8572;SDS011;4324;42.012;24.872;2022-10-16T06:36:01;11.67;;;10.03;;
8572;SDS011;4324;42.012;24.872;2022-10-16T06:38:29;14.57;;;10.93;;
8572;SDS011;4324;42.012;24.872;2022-10-16T06:40:56;18.93;;;11.27;;
8572;SDS011;4324;42.012;24.872;2022-10-16T06:43:23;12.97;;;9.73;;
8572;SDS011;4324;42.012;24.872;2022-10-16T06:45:52;13.20;;;10.27;;
8572;SDS011;4324;42.012;24.872;2022-10-16T06:48:19;12.37;;;10.43;;
8572;SDS011;4324;42.012;24.872;2022-10-16T06:50:54;12.33;;;10.80;;
8572;SDS011;4324;42.012;24.872;2022-10-16T06:53:22;12.60;;;11.27;;
8572;SDS011;4324;42.012;24.872;2022-10-16T06:55:49;12.80;;;10.70;;
8572;SDS011;4324;42.012;24.872;2022-10-16T06:58:16;12.03;;;10.83;;
8572;SDS011;4324;42.012;24.872;2022-10-16T07:00:43;12.77;;;9.83;;
8572;SDS011;4324;42.012;24.872;2022-10-16T07:03:12;22.37;;;10.97;;
8572;SDS011;4324;42.012;24.872;2022-10-16T07:05:39;21.10;;;11.70;;
8572;SDS011;4324;42.012;24.872;2022-10-16T07:08:07;18.40;;;10.67;;
8572;SDS011;4324;42.012;24.872;2022-10-16T07:10:34;13.10;;;10.10;;
8572;SDS011;4324;42.012;24.872;2022-10-16T07:13:02;11.47;;;9.43;;
8572;SDS011;4324;42.012;24.872;2022-10-16T07:15:29;13.97;;;10.13;;
8572;SDS011;4324;42.012;24.872;2022-10-16T07:17:56;10.97;;;9.87;;
8572;SDS011;4324;42.012;24.872;2022-10-16T07:20:24;11.23;;;9.53;;
8572;SDS011;4324;42.012;24.872;2022-10-16T07:22:51;12.50;;;9.30;;
8572;SDS011;4324;42.012;24.872;2022-10-16T07:25:18;13.50;;;9.27;;
8572;SDS011;4324;42.012;24.872;2022-10-16T07:27:45;13.30;;;9.53;;
8572;SDS011;4324;42.012;24.872;2022-10-16T07:30:12;14.27;;;10.40;;
8572;SDS011;4324;42.012;24.872;2022-10-16T07:32:39;16.73;;;9.97;;
8572;SDS011;4324;42.012;24.872;2022-10-16T07:35:06;13.80;;;9.67;;
8572;SDS011;4324;42.012;24.872;2022-10-16T07:37:35;15.20;;;10.57;;
8572;SDS011;4324;42.012;24.872;2022-10-16T07:40:02;13.40;;;9.57;;
8572;SDS011;4324;42.012;24.872;2022-10-16T07:42:29;11.17;;;9.93;;
8572;SDS011;4324;42.012;24.872;2022-10-16T07:44:56;12.83;;;10.67;;
8572;SDS011;4324;42.012;24.872;2022-10-16T07:47:23;14.83;;;10.53;;
8572;SDS011;4324;42.012;24.872;2022-10-16T07:49:50;12.30;;;9.87;;
8572;SDS011;4324;42.012;24.872;2022-10-16T07:52:16;14.37;;;10.13;;
8572;SDS011;4324;42.012;24.872;2022-10-16T07:54:44;11.53;;;10.03;;
8572;SDS011;4324;42.012;24.872;2022-10-16T07:57:11;11.43;;;10.10;;
8572;SDS011;4324;42.012;24.872;2022-10-16T07:59:44;12.60;;;9.90;;
8572;SDS011;4324;42.012;24.872;2022-10-16T08:02:11;11.77;;;10.57;;
8572;SDS011;4324;42.012;24.872;2022-10-16T08:04:38;12.90;;;9.40;;
8572;SDS011;4324;42.012;24.872;2022-10-16T08:07:06;11.97;;;9.17;;
8572;SDS011;4324;42.012;24.872;2022-10-16T08:09:33;11.40;;;9.57;;
8572;SDS011;4324;42.012;24.872;2022-10-16T08:12:02;12.07;;;8.83;;
8572;SDS011;4324;42.012;24.872;2022-10-16T08:14:29;13.80;;;9.20;;
8572;SDS011;4324;42.012;24.872;2022-10-16T08:16:56;9.77;;;8.73;;
8572;SDS011;4324;42.012;24.872;2022-10-16T08:19:23;11.03;;;8.57;;
8572;SDS011;4324;42.012;24.872;2022-10-16T08:21:50;9.43;;;8.37;;
8572;SDS011;4324;42.012;24.872;2022-10-16T08:24:17;10.83;;;9.00;;
8572;SDS011;4324;42.012;24.872;2022-10-16T08:26:44;10.80;;;8.33;;
8572;SDS011;4324;42.012;24.872;2022-10-16T08:29:12;10.30;;;8.33;;
8572;SDS011;4324;42.012;24.872;2022-10-16T08:31:40;18.40;;;10.53;;
8572;SDS011;4324;42.012;24.872;2022-10-16T08:34:06;10.63;;;9.53;;
8572;SDS011;4324;42.012;24.872;2022-10-16T08:36:34;10.73;;;7.73;;
8572;SDS011;4324;42.012;24.872;2022-10-16T08:39:01;10.57;;;8.27;;
8572;SDS011;4324;42.012;24.872;2022-10-16T08:44:30;8.77;;;7.23;;
8572;SDS011;4324;42.012;24.872;2022-10-16T08:47:12;10.57;;;7.53;;
8572;SDS011;4324;42.012;24.872;2022-10-16T08:49:48;8.37;;;7.57;;
8572;SDS011;4324;42.012;24.872;2022-10-16T08:52:22;7.87;;;7.07;;
8572;SDS011;4324;42.012;24.872;2022-10-16T08:54:53;9.23;;;7.47;;
8572;SDS011;4324;42.012;24.872;2022-10-16T08:57:22;9.30;;;7.07;;
8572;SDS011;4324;42.012;24.872;2022-10-16T08:59:53;10.30;;;6.97;;
8572;SDS011;4324;42.012;24.872;2022-10-16T09:02:27;7.37;;;6.70;;
8572;SDS011;4324;42.012;24.872;2022-10-16T09:05:00;8.87;;;7.60;;
8572;SDS011;4324;42.012;24.872;2022-10-16T09:07:38;8.00;;;7.03;;
8572;SDS011;4324;42.012;24.872;2022-10-16T09:10:18;8.67;;;7.77;;
8572;SDS011;4324;42.012;24.872;2022-10-16T09:12:54;8.77;;;7.97;;
8572;SDS011;4324;42.012;24.872;2022-10-16T09:15:31;7.40;;;6.53;;
8572;SDS011;4324;42.012;24.872;2022-10-16T09:18:05;6.53;;;5.80;;
8572;SDS011;4324;42.012;24.872;2022-10-16T09:20:41;7.03;;;5.70;;
8572;SDS011;4324;42.012;24.872;2022-10-16T09:23:16;8.57;;;5.70;;
8572;SDS011;4324;42.012;24.872;2022-10-16T09:25:46;5.30;;;4.80;;
8572;SDS011;4324;42.012;24.872;2022-10-16T09:28:14;6.03;;;5.43;;
8572;SDS011;4324;42.012;24.872;2022-10-16T09:30:44;7.93;;;5.40;;
8572;SDS011;4324;42.012;24.872;2022-10-16T09:33:13;7.97;;;5.50;;
8572;SDS011;4324;42.012;24.872;2022-10-16T09:35:42;8.60;;;7.67;;
8572;SDS011;4324;42.012;24.872;2022-10-16T09:38:20;6.17;;;5.57;;
8572;SDS011;4324;42.012;24.872;2022-10-16T09:40:48;5.93;;;5.30;;
8572;SDS011;4324;42.012;24.872;2022-10-16T09:43:20;7.73;;;5.73;;
8572;SDS011;4324;42.012;24.872;2022-10-16T09:45:55;8.43;;;6.73;;
8572;SDS011;4324;42.012;24.872;2022-10-16T09:48:25;9.47;;;6.03;;
8572;SDS011;4324;42.012;24.872;2022-10-16T09:50:55;6.33;;;5.73;;
8572;SDS011;4324;42.012;24.872;2022-10-16T09:53:23;6.47;;;5.83;;
8572;SDS011;4324;42.012;24.872;2022-10-16T09:55:50;6.73;;;5.67;;
8572;SDS011;4324;42.012;24.872;2022-10-16T09:58:20;5.97;;;5.37;;
8572;SDS011;4324;42.012;24.872;2022-10-16T10:00:49;6.10;;;5.50;;
8572;SDS011;4324;42.012;24.872;2022-10-16T10:03:26;6.07;;;5.57;;
8572;SDS011;4324;42.012;24.872;2022-10-16T10:06:03;6.20;;;5.60;;
8572;SDS011;4324;42.012;24.872;2022-10-16T10:08:41;6.60;;;5.63;;
8572;SDS011;4324;42.012;24.872;2022-10-16T10:11:08;6.50;;;5.50;;
8572;SDS011;4324;42.012;24.872;2022-10-16T10:13:34;6.23;;;5.73;;
8572;SDS011;4324;42.012;24.872;2022-10-16T10:16:01;6.37;;;5.70;;
8572;SDS011;4324;42.012;24.872;2022-10-16T10:18:30;6.10;;;5.57;;
8572;SDS011;4324;42.012;24.872;2022-10-16T10:20:57;6.70;;;6.00;;
8572;SDS011;4324;42.012;24.872;2022-10-16T10:23:25;5.67;;;5.13;;
8572;SDS011;4324;42.012;24.872;2022-10-16T10:25:56;5.83;;;5.33;;
8572;SDS011;4324;42.012;24.872;2022-10-16T10:28:38;6.10;;;5.50;;
8572;SDS011;4324;42.012;24.872;2022-10-16T10:31:14;6.70;;;5.80;;
8572;SDS011;4324;42.012;24.872;2022-10-16T10:33:51;6.40;;;5.50;;
8572;SDS011;4324;42.012;24.872;2022-10-16T10:36:28;6.40;;;5.80;;
8572;SDS011;4324;42.012;24.872;2022-10-16T10:38:59;6.20;;;5.70;;
8572;SDS011;4324;42.012;24.872;2022-10-16T10:41:35;6.67;;;6.07;;
8572;SDS011;4324;42.012;24.872;2022-10-16T10:44:33;7.00;;;6.20;;
8572;SDS011;4324;42.012;24.872;2022-10-16T10:47:11;7.13;;;6.43;;
8572;SDS011;4324;42.012;24.872;2022-10-16T10:49:51;6.30;;;5.80;;
8572;SDS011;4324;42.012;24.872;2022-10-16T10:52:34;8.80;;;5.90;;
8572;SDS011;4324;42.012;24.872;2022-10-16T10:55:14;6.67;;;5.97;;
8572;SDS011;4324;42.012;24.872;2022-10-16T10:57:50;8.30;;;5.80;;
8572;SDS011;4324;42.012;24.872;2022-10-16T11:00:28;5.63;;;5.13;;
8572;SDS011;4324;42.012;24.872;2022-10-16T11:03:06;6.97;;;5.80;;
8572;SDS011;4324;42.012;24.872;2022-10-16T11:05:47;6.20;;;5.60;;
8572;SDS011;4324;42.012;24.872;2022-10-16T11:08:19;5.80;;;5.00;;
8572;SDS011;4324;42.012;24.872;2022-10-16T11:10:52;6.37;;;5.50;;
8572;SDS011;4324;42.012;24.872;2022-10-16T11:13:24;6.93;;;5.33;;
8572;SDS011;4324;42.012;24.872;2022-10-16T11:15:59;5.73;;;5.13;;
8572;SDS011;4324;42.012;24.872;2022-10-16T11:18:30;5.53;;;5.00;;
8572;SDS011;4324;42.012;24.872;2022-10-16T11:21:07;7.47;;;6.13;;
8572;SDS011;4324;42.012;24.872;2022-10-16T11:23:38;5.93;;;5.33;;
8572;SDS011;4324;42.012;24.872;2022-10-16T11:26:11;6.20;;;5.60;;
8572;SDS011;4324;42.012;24.872;2022-10-16T11:28:42;6.27;;;5.60;;
8572;SDS011;4324;42.012;24.872;2022-10-16T11:31:15;7.37;;;6.27;;
8572;SDS011;4324;42.012;24.872;2022-10-16T11:33:51;5.87;;;5.30;;
8572;SDS011;4324;42.012;24.872;2022-10-16T11:36:27;5.77;;;5.27;;
8572;SDS011;4324;42.012;24.872;2022-10-16T11:39:02;5.97;;;5.47;;
8572;SDS011;4324;42.012;24.872;2022-10-16T11:41:41;6.00;;;5.33;;
8572;SDS011;4324;42.012;24.872;2022-10-16T11:44:24;5.50;;;5.00;;
8572;SDS011;4324;42.012;24.872;2022-10-16T11:47:01;7.60;;;6.77;;
8572;SDS011;4324;42.012;24.872;2022-10-16T11:49:35;5.67;;;5.20;;
8572;SDS011;4324;42.012;24.872;2022-10-16T11:52:07;5.80;;;5.07;;
8572;SDS011;4324;42.012;24.872;2022-10-16T11:54:44;7.40;;;5.27;;
8572;SDS011;4324;42.012;24.872;2022-10-16T11:57:15;6.67;;;5.97;;
8572;SDS011;4324;42.012;24.872;2022-10-16T11:59:46;7.67;;;6.90;;
8572;SDS011;4324;42.012;24.872;2022-10-16T12:02:32;7.33;;;6.43;;
8572;SDS011;4324;42.012;24.872;2022-10-16T12:05:11;8.60;;;5.73;;
8572;SDS011;4324;42.012;24.872;2022-10-16T12:07:48;5.97;;;5.47;;
8572;SDS011;4324;42.012;24.872;2022-10-16T12:10:23;6.80;;;6.10;;
8572;SDS011;4324;42.012;24.872;2022-10-16T12:12:52;5.77;;;5.27;;
8572;SDS011;4324;42.012;24.872;2022-10-16T12:15:22;6.50;;;5.90;;
8572;SDS011;4324;42.012;24.872;2022-10-16T12:17:51;6.70;;;6.07;;
8572;SDS011;4324;42.012;24.872;2022-10-16T12:20:24;6.77;;;6.13;;
8572;SDS011;4324;42.012;24.872;2022-10-16T12:23:00;5.90;;;5.40;;
8572;SDS011;4324;42.012;24.872;2022-10-16T12:25:31;6.17;;;5.57;;
8572;SDS011;4324;42.012;24.872;2022-10-16T12:28:00;5.93;;;5.40;;
8572;SDS011;4324;42.012;24.872;2022-10-16T12:30:30;6.40;;;5.80;;
8572;SDS011;4324;42.012;24.872;2022-10-16T12:33:00;6.27;;;5.67;;
8572;SDS011;4324;42.012;24.872;2022-10-16T12:35:29;7.87;;;6.03;;
8572;SDS011;4324;42.012;24.872;2022-10-16T12:38:08;6.60;;;5.90;;
8572;SDS011;4324;42.012;24.872;2022-10-16T12:40:43;6.20;;;5.60;;
8572;SDS011;4324;42.012;24.872;2022-10-16T12:46:03;7.53;;;5.83;;
8572;SDS011;4324;42.012;24.872;2022-10-16T12:48:32;7.40;;;5.60;;
8572;SDS011;4324;42.012;24.872;2022-10-16T12:51:09;6.10;;;5.53;;
8572;SDS011;4324;42.012;24.872;2022-10-16T12:53:38;5.67;;;5.17;;
8572;SDS011;4324;42.012;24.872;2022-10-16T12:56:09;7.27;;;6.20;;
8572;SDS011;4324;42.012;24.872;2022-10-16T12:58:51;6.70;;;6.10;;
8572;SDS011;4324;42.012;24.872;2022-10-16T13:01:31;6.10;;;5.57;;
8572;SDS011;4324;42.012;24.872;2022-10-16T13:04:08;7.90;;;5.90;;
8572;SDS011;4324;42.012;24.872;2022-10-16T13:06:50;8.10;;;5.80;;
8572;SDS011;4324;42.012;24.872;2022-10-16T13:09:32;7.27;;;5.90;;
8572;SDS011;4324;42.012;24.872;2022-10-16T13:12:14;5.97;;;5.37;;
8572;SDS011;4324;42.012;24.872;2022-10-16T13:17:45;9.20;;;8.27;;
8572;SDS011;4324;42.012;24.872;2022-10-16T13:20:22;16.10;;;14.40;;
8572;SDS011;4324;42.012;24.872;2022-10-16T13:22:59;7.03;;;6.23;;
8572;SDS011;4324;42.012;24.872;2022-10-16T13:25:39;9.90;;;6.43;;
8572;SDS011;4324;42.012;24.872;2022-10-16T13:28:13;6.67;;;6.07;;
8572;SDS011;4324;42.012;24.872;2022-10-16T13:30:42;6.63;;;5.93;;
8572;SDS011;4324;42.012;24.872;2022-10-16T13:33:13;6.70;;;6.00;;
8572;SDS011;4324;42.012;24.872;2022-10-16T13:35:47;6.07;;;5.57;;
8572;SDS011;4324;42.012;24.872;2022-10-16T13:38:16;5.80;;;5.20;;
8572;SDS011;4324;42.012;24.872;2022-10-16T13:40:50;6.17;;;5.57;;
8572;SDS011;4324;42.012;24.872;2022-10-16T13:43:20;6.57;;;6.03;;
8572;SDS011;4324;42.012;24.872;2022-10-16T13:45:55;7.50;;;6.40;;
8572;SDS011;4324;42.012;24.872;2022-10-16T13:48:24;6.10;;;5.50;;
8572;SDS011;4324;42.012;24.872;2022-10-16T13:51:04;6.40;;;5.80;;
8572;SDS011;4324;42.012;24.872;2022-10-16T13:53:33;6.33;;;5.67;;
8572;SDS011;4324;42.012;24.872;2022-10-16T13:56:04;6.30;;;5.70;;
8572;SDS011;4324;42.012;24.872;2022-10-16T13:58:34;6.23;;;5.63;;
8572;SDS011;4324;42.012;24.872;2022-10-16T14:01:01;6.43;;;5.87;;
8572;SDS011;4324;42.012;24.872;2022-10-16T14:03:31;6.97;;;6.23;;
8572;SDS011;4324;42.012;24.872;2022-10-16T14:06:01;6.73;;;6.13;;
8572;SDS011;4324;42.012;24.872;2022-10-16T14:08:30;6.93;;;6.20;;
8572;SDS011;4324;42.012;24.872;2022-10-16T14:10:58;6.03;;;5.43;;
8572;SDS011;4324;42.012;24.872;2022-10-16T14:13:31;6.10;;;5.47;;
8572;SDS011;4324;42.012;24.872;2022-10-16T14:16:02;6.27;;;5.73;;
8572;SDS011;4324;42.012;24.872;2022-10-16T14:18:33;7.10;;;6.10;;
8572;SDS011;4324;42.012;24.872;2022-10-16T14:21:05;6.90;;;6.30;;
8572;SDS011;4324;42.012;24.872;2022-10-16T14:23:34;7.30;;;5.57;;
8572;SDS011;4324;42.012;24.872;2022-10-16T14:26:12;9.13;;;6.70;;
8572;SDS011;4324;42.012;24.872;2022-10-16T14:28:43;7.17;;;6.43;;
8572;SDS011;4324;42.012;24.872;2022-10-16T14:31:23;7.60;;;6.90;;
8572;SDS011;4324;42.012;24.872;2022-10-16T14:33:52;7.90;;;7.03;;
8572;SDS011;4324;42.012;24.872;2022-10-16T14:36:19;8.70;;;7.97;;
8572;SDS011;4324;42.012;24.872;2022-10-16T14:38:49;10.57;;;9.47;;
8572;SDS011;4324;42.012;24.872;2022-10-16T14:41:25;9.07;;;7.90;;
8572;SDS011;4324;42.012;24.872;2022-10-16T14:43:54;10.37;;;9.33;;
8572;SDS011;4324;42.012;24.872;2022-10-16T14:46:28;10.30;;;9.30;;
8572;SDS011;4324;42.012;24.872;2022-10-16T14:48:59;12.33;;;10.67;;
8572;SDS011;4324;42.012;24.872;2022-10-16T14:51:29;12.70;;;10.30;;
8572;SDS011;4324;42.012;24.872;2022-10-16T14:53:56;9.53;;;8.50;;
8572;SDS011;4324;42.012;24.872;2022-10-16T14:56:24;10.77;;;8.40;;
8572;SDS011;4324;42.012;24.872;2022-10-16T14:58:56;11.63;;;8.53;;
8572;SDS011;4324;42.012;24.872;2022-10-16T15:01:23;13.00;;;8.83;;
8572;SDS011;4324;42.012;24.872;2022-10-16T15:03:50;10.43;;;9.13;;
8572;SDS011;4324;42.012;24.872;2022-10-16T15:06:19;8.30;;;7.50;;
8572;SDS011;4324;42.012;24.872;2022-10-16T15:08:47;8.37;;;6.87;;
8572;SDS011;4324;42.012;24.872;2022-10-16T15:11:15;7.57;;;6.77;;
8572;SDS011;4324;42.012;24.872;2022-10-16T15:13:43;8.30;;;6.93;;
8572;SDS011;4324;42.012;24.872;2022-10-16T15:16:12;7.30;;;6.60;;
8572;SDS011;4324;42.012;24.872;2022-10-16T15:18:40;7.17;;;6.47;;
8572;SDS011;4324;42.012;24.872;2022-10-16T15:21:07;7.27;;;6.57;;
8572;SDS011;4324;42.012;24.872;2022-10-16T15:23:34;7.43;;;6.63;;